sensor_id;sensor_type;location;lat;lon;timestamp;pressure;altitude;pressure_sealevel;temperature;humidity
72677;BME280;60755;51.374;10.662;2023-03-31T00:01:39;96292.28;;;7.25;100.00
72677;BME280;60755;51.374;10.662;2023-03-31T00:04:07;96301.47;;;7.28;100.00
72677;BME280;60755;51.374;10.662;2023-03-31T00:06:36;96289.50;;;7.15;100.00
72677;BME280;60755;51.374;10.662;2023-03-31T00:09:04;96291.66;;;7.18;100.00
72677;BME280;60755;51.374;10.662;2023-03-31T00:11:32;96287.06;;;7.42;100.00
72677;BME280;60755;51.374;10.662;2023-03-31T00:14:00;96279.75;;;7.61;100.00
72677;BME280;60755;51.374;10.662;2023-03-31T00:16:27;96290.13;;;7.73;100.00
72677;BME280;60755;51.374;10.662;2023-03-31T00:18:54;96279.09;;;7.88;100.00
72677;BME280;60755;51.374;10.662;2023-03-31T00:21:22;96268.16;;;7.91;100.00
72677;BME280;60755;51.374;10.662;2023-03-31T00:24:00;96276.38;;;7.99;100.00
72677;BME280;60755;51.374;10.662;2023-03-31T00:26:28;96266.88;;;7.93;100.00
72677;BME280;60755;51.374;10.662;2023-03-31T00:28:58;96267.53;;;7.83;100.00
72677;BME280;60755;51.374;10.662;2023-03-31T00:31:27;96267.84;;;7.87;100.00
72677;BME280;60755;51.374;10.662;2023-03-31T00:33:55;96266.28;;;7.86;100.00
72677;BME280;60755;51.374;10.662;2023-03-31T00:36:23;96260.19;;;7.80;100.00
72677;BME280;60755;51.374;10.662;2023-03-31T00:38:53;96258.19;;;7.88;100.00
72677;BME280;60755;51.374;10.662;2023-03-31T00:41:21;96246.69;;;7.89;100.00
72677;BME280;60755;51.374;10.662;2023-03-31T00:44:18;96247.13;;;8.02;100.00
72677;BME280;60755;51.374;10.662;2023-03-31T00:46:51;96249.50;;;8.04;100.00
72677;BME280;60755;51.374;10.662;2023-03-31T00:49:24;96235.44;;;8.10;100.00
72677;BME280;60755;51.374;10.662;2023-03-31T00:51:54;96234.16;;;8.12;100.00
72677;BME280;60755;51.374;10.662;2023-03-31T00:54:24;96229.84;;;8.23;100.00
72677;BME280;60755;51.374;10.662;2023-03-31T00:56:54;96231.47;;;8.29;100.00
72677;BME280;60755;51.374;10.662;2023-03-31T00:59:30;96222.69;;;8.35;100.00
72677;BME280;60755;51.374;10.662;2023-03-31T01:02:00;96221.06;;;8.34;100.00
72677;BME280;60755;51.374;10.662;2023-03-31T01:04:32;96219.56;;;8.38;100.00
72677;BME280;60755;51.374;10.662;2023-03-31T01:07:03;96215.91;;;8.39;99.65
72677;BME280;60755;51.374;10.662;2023-03-31T01:09:34;96204.94;;;8.21;100.00
72677;BME280;60755;51.374;10.662;2023-03-31T01:12:06;96196.75;;;8.12;100.00
72677;BME280;60755;51.374;10.662;2023-03-31T01:14:35;96201.84;;;8.02;100.00
72677;BME280;60755;51.374;10.662;2023-03-31T01:17:03;96199.84;;;7.87;100.00
72677;BME280;60755;51.374;10.662;2023-03-31T01:19:44;96197.88;;;7.77;100.00
72677;BME280;60755;51.374;10.662;2023-03-31T01:28:16;96197.25;;;7.48;100.00
72677;BME280;60755;51.374;10.662;2023-03-31T01:34:39;96187.25;;;7.45;100.00
72677;BME280;60755;51.374;10.662;2023-03-31T01:37:38;96179.19;;;7.47;100.00
72677;BME280;60755;51.374;10.662;2023-03-31T01:40:32;96183.78;;;7.40;100.00
72677;BME280;60755;51.374;10.662;2023-03-31T01:43:06;96173.59;;;7.38;100.00
72677;BME280;60755;51.374;10.662;2023-03-31T01:45:45;96169.22;;;7.27;100.00
72677;BME280;60755;51.374;10.662;2023-03-31T01:48:16;96170.81;;;7.28;100.00
72677;BME280;60755;51.374;10.662;2023-03-31T01:50:46;96169.63;;;7.36;100.00
72677;BME280;60755;51.374;10.662;2023-03-31T01:53:19;96171.09;;;7.48;100.00
72677;BME280;60755;51.374;10.662;2023-03-31T01:55:59;96169.91;;;7.56;100.00
72677;BME280;60755;51.374;10.662;2023-03-31T01:58:32;96165.28;;;7.63;100.00
72677;BME280;60755;51.374;10.662;2023-03-31T02:01:05;96156.41;;;7.64;100.00
72677;BME280;60755;51.374;10.662;2023-03-31T02:03:39;96154.03;;;7.63;100.00
72677;BME280;60755;51.374;10.662;2023-03-31T02:06:13;96154.84;;;7.63;100.00
72677;BME280;60755;51.374;10.662;2023-03-31T02:08:45;96150.69;;;7.67;100.00
72677;BME280;60755;51.374;10.662;2023-03-31T02:11:15;96147.28;;;7.67;100.00
72677;BME280;60755;51.374;10.662;2023-03-31T02:13:46;96144.13;;;7.65;100.00
72677;BME280;60755;51.374;10.662;2023-03-31T02:16:19;96141.03;;;7.68;100.00
72677;BME280;60755;51.374;10.662;2023-03-31T02:18:50;96134.63;;;7.58;100.00
72677;BME280;60755;51.374;10.662;2023-03-31T02:21:19;96128.91;;;7.62;100.00
72677;BME280;60755;51.374;10.662;2023-03-31T02:23:48;96126.25;;;7.56;100.00
72677;BME280;60755;51.374;10.662;2023-03-31T02:26:22;96120.41;;;7.49;100.00
72677;BME280;60755;51.374;10.662;2023-03-31T02:28:50;96111.69;;;7.44;100.00
72677;BME280;60755;51.374;10.662;2023-03-31T02:31:26;96119.06;;;7.47;100.00
72677;BME280;60755;51.374;10.662;2023-03-31T02:33:54;96113.34;;;7.50;100.00
72677;BME280;60755;51.374;10.662;2023-03-31T02:36:23;96099.31;;;7.56;100.00
72677;BME280;60755;51.374;10.662;2023-03-31T02:38:54;96093.59;;;7.59;100.00
72677;BME280;60755;51.374;10.662;2023-03-31T02:41:24;96089.91;;;7.55;100.00
72677;BME280;60755;51.374;10.662;2023-03-31T02:43:51;96084.25;;;7.63;100.00
72677;BME280;60755;51.374;10.662;2023-03-31T02:46:22;96080.28;;;7.61;100.00
72677;BME280;60755;51.374;10.662;2023-03-31T02:48:54;96076.94;;;7.65;100.00
72677;BME280;60755;51.374;10.662;2023-03-31T02:51:53;96073.78;;;7.63;100.00
72677;BME280;60755;51.374;10.662;2023-03-31T02:55:02;96066.38;;;7.55;100.00
72677;BME280;60755;51.374;10.662;2023-03-31T03:00:52;96066.41;;;7.60;100.00
72677;BME280;60755;51.374;10.662;2023-03-31T03:03:33;96062.75;;;7.61;100.00
72677;BME280;60755;51.374;10.662;2023-03-31T03:06:14;96066.56;;;7.70;100.00
72677;BME280;60755;51.374;10.662;2023-03-31T03:09:04;96063.34;;;7.63;100.00
72677;BME280;60755;51.374;10.662;2023-03-31T03:11:42;96060.66;;;7.58;100.00
72677;BME280;60755;51.374;10.662;2023-03-31T03:14:17;96059.34;;;7.61;100.00
72677;BME280;60755;51.374;10.662;2023-03-31T03:16:54;96051.28;;;7.62;100.00
72677;BME280;60755;51.374;10.662;2023-03-31T03:19:23;96050.19;;;7.58;100.00
72677;BME280;60755;51.374;10.662;2023-03-31T03:21:51;96050.44;;;7.56;100.00
72677;BME280;60755;51.374;10.662;2023-03-31T03:24:18;96045.47;;;7.55;100.00
72677;BME280;60755;51.374;10.662;2023-03-31T03:26:47;96045.75;;;7.58;100.00
72677;BME280;60755;51.374;10.662;2023-03-31T03:29:14;96045.06;;;7.68;100.00
72677;BME280;60755;51.374;10.662;2023-03-31T03:31:42;96043.81;;;7.71;100.00
72677;BME280;60755;51.374;10.662;2023-03-31T03:34:10;96037.56;;;7.77;100.00
72677;BME280;60755;51.374;10.662;2023-03-31T03:36:38;96031.41;;;7.88;100.00
72677;BME280;60755;51.374;10.662;2023-03-31T03:39:06;96019.97;;;7.94;100.00
72677;BME280;60755;51.374;10.662;2023-03-31T03:41:34;96026.53;;;7.97;100.00
72677;BME280;60755;51.374;10.662;2023-03-31T03:44:01;96019.72;;;7.96;100.00
72677;BME280;60755;51.374;10.662;2023-03-31T03:46:29;96020.25;;;7.98;100.00
72677;BME280;60755;51.374;10.662;2023-03-31T03:48:56;96018.97;;;8.00;100.00
72677;BME280;60755;51.374;10.662;2023-03-31T03:51:24;96007.97;;;7.98;100.00
72677;BME280;60755;51.374;10.662;2023-03-31T03:53:52;96000.13;;;7.98;100.00
72677;BME280;60755;51.374;10.662;2023-03-31T03:56:19;95994.63;;;8.00;100.00
72677;BME280;60755;51.374;10.662;2023-03-31T03:58:47;95994.88;;;7.98;100.00
72677;BME280;60755;51.374;10.662;2023-03-31T04:01:14;95992.53;;;7.97;100.00
72677;BME280;60755;51.374;10.662;2023-03-31T04:03:41;95984.97;;;8.00;100.00
72677;BME280;60755;51.374;10.662;2023-03-31T04:06:08;95983.69;;;8.03;100.00
72677;BME280;60755;51.374;10.662;2023-03-31T04:08:37;95983.13;;;8.01;100.00
72677;BME280;60755;51.374;10.662;2023-03-31T04:11:10;95974.59;;;8.10;100.00
72677;BME280;60755;51.374;10.662;2023-03-31T04:13:39;95969.06;;;8.07;100.00
72677;BME280;60755;51.374;10.662;2023-03-31T04:16:06;95958.53;;;8.02;100.00
72677;BME280;60755;51.374;10.662;2023-03-31T04:18:34;95954.34;;;7.96;100.00
72677;BME280;60755;51.374;10.662;2023-03-31T04:21:08;95948.53;;;7.94;100.00
72677;BME280;60755;51.374;10.662;2023-03-31T04:23:39;95941.72;;;7.93;100.00
72677;BME280;60755;51.374;10.662;2023-03-31T04:26:08;95937.53;;;7.87;100.00
72677;BME280;60755;51.374;10.662;2023-03-31T04:28:35;95930.22;;;7.89;100.00
72677;BME280;60755;51.374;10.662;2023-03-31T04:31:03;95915.00;;;7.85;100.00
72677;BME280;60755;51.374;10.662;2023-03-31T04:33:31;95918.16;;;7.88;100.00
72677;BME280;60755;51.374;10.662;2023-03-31T04:36:03;95923.34;;;7.82;100.00
72677;BME280;60755;51.374;10.662;2023-03-31T04:38:32;95915.56;;;7.88;100.00
72677;BME280;60755;51.374;10.662;2023-03-31T04:41:01;95907.50;;;7.94;100.00
72677;BME280;60755;51.374;10.662;2023-03-31T04:43:28;95900.97;;;7.97;100.00
72677;BME280;60755;51.374;10.662;2023-03-31T04:45:55;95904.06;;;7.94;100.00
72677;BME280;60755;51.374;10.662;2023-03-31T04:48:22;95892.59;;;7.95;100.00
72677;BME280;60755;51.374;10.662;2023-03-31T04:50:49;95884.50;;;8.01;100.00
72677;BME280;60755;51.374;10.662;2023-03-31T04:53:16;95878.56;;;8.11;100.00
72677;BME280;60755;51.374;10.662;2023-03-31T04:55:44;95865.50;;;8.11;100.00
72677;BME280;60755;51.374;10.662;2023-03-31T04:58:12;95854.72;;;8.07;100.00
72677;BME280;60755;51.374;10.662;2023-03-31T05:00:39;95844.78;;;8.04;100.00
72677;BME280;60755;51.374;10.662;2023-03-31T05:03:07;95845.78;;;7.98;100.00
72677;BME280;60755;51.374;10.662;2023-03-31T05:05:34;95831.41;;;8.01;100.00
72677;BME280;60755;51.374;10.662;2023-03-31T05:08:02;95825.38;;;8.00;100.00
72677;BME280;60755;51.374;10.662;2023-03-31T05:10:30;95830.84;;;7.94;100.00
72677;BME280;60755;51.374;10.662;2023-03-31T05:12:57;95831.41;;;7.96;100.00
72677;BME280;60755;51.374;10.662;2023-03-31T05:15:26;95825.91;;;7.97;100.00
72677;BME280;60755;51.374;10.662;2023-03-31T05:17:53;95834.50;;;7.93;100.00
72677;BME280;60755;51.374;10.662;2023-03-31T05:20:20;95834.75;;;7.91;100.00
72677;BME280;60755;51.374;10.662;2023-03-31T05:22:47;95824.81;;;7.93;100.00
72677;BME280;60755;51.374;10.662;2023-03-31T05:25:15;95831.31;;;7.85;100.00
72677;BME280;60755;51.374;10.662;2023-03-31T05:27:45;95827.69;;;7.87;100.00
72677;BME280;60755;51.374;10.662;2023-03-31T05:30:14;95817.28;;;7.97;100.00
72677;BME280;60755;51.374;10.662;2023-03-31T05:32:43;95819.91;;;8.02;100.00
72677;BME280;60755;51.374;10.662;2023-03-31T05:35:10;95816.47;;;7.96;100.00
72677;BME280;60755;51.374;10.662;2023-03-31T05:37:37;95823.81;;;7.99;100.00
72677;BME280;60755;51.374;10.662;2023-03-31T05:40:06;95830.63;;;8.00;100.00
72677;BME280;60755;51.374;10.662;2023-03-31T05:42:34;95824.84;;;7.98;100.00
72677;BME280;60755;51.374;10.662;2023-03-31T05:45:01;95836.69;;;8.06;100.00
72677;BME280;60755;51.374;10.662;2023-03-31T05:47:29;95829.88;;;8.10;100.00
72677;BME280;60755;51.374;10.662;2023-03-31T05:49:58;95830.22;;;8.19;100.00
72677;BME280;60755;51.374;10.662;2023-03-31T05:52:25;95818.44;;;8.21;100.00
72677;BME280;60755;51.374;10.662;2023-03-31T05:54:53;95818.47;;;8.26;100.00
72677;BME280;60755;51.374;10.662;2023-03-31T05:57:20;95818.00;;;8.34;100.00
72677;BME280;60755;51.374;10.662;2023-03-31T05:59:47;95792.13;;;8.38;100.00
72677;BME280;60755;51.374;10.662;2023-03-31T06:02:14;95776.66;;;8.41;100.00
72677;BME280;60755;51.374;10.662;2023-03-31T06:04:41;95758.91;;;8.54;100.00
72677;BME280;60755;51.374;10.662;2023-03-31T06:07:10;95758.41;;;8.62;100.00
72677;BME280;60755;51.374;10.662;2023-03-31T06:09:38;95747.91;;;8.57;100.00
72677;BME280;60755;51.374;10.662;2023-03-31T06:12:06;95761.81;;;8.62;100.00
72677;BME280;60755;51.374;10.662;2023-03-31T06:14:33;95752.41;;;8.61;100.00
72677;BME280;60755;51.374;10.662;2023-03-31T06:17:00;95757.88;;;8.65;100.00
72677;BME280;60755;51.374;10.662;2023-03-31T06:19:27;95761.03;;;8.72;100.00
72677;BME280;60755;51.374;10.662;2023-03-31T06:21:55;95760.25;;;8.72;100.00
72677;BME280;60755;51.374;10.662;2023-03-31T06:24:23;95756.38;;;8.84;100.00
72677;BME280;60755;51.374;10.662;2023-03-31T06:26:51;95759.00;;;9.05;100.00
72677;BME280;60755;51.374;10.662;2023-03-31T06:29:18;95747.47;;;9.21;100.00
72677;BME280;60755;51.374;10.662;2023-03-31T06:31:46;95751.16;;;9.20;100.00
72677;BME280;60755;51.374;10.662;2023-03-31T06:34:13;95752.47;;;9.33;100.00
72677;BME280;60755;51.374;10.662;2023-03-31T06:36:40;95742.25;;;9.46;100.00
72677;BME280;60755;51.374;10.662;2023-03-31T06:39:07;95738.53;;;9.52;100.00
72677;BME280;60755;51.374;10.662;2023-03-31T06:41:36;95739.59;;;9.57;100.00
72677;BME280;60755;51.374;10.662;2023-03-31T06:44:03;95740.63;;;9.61;100.00
72677;BME280;60755;51.374;10.662;2023-03-31T06:46:31;95740.41;;;9.47;100.00
72677;BME280;60755;51.374;10.662;2023-03-31T06:48:58;95741.44;;;9.41;100.00
72677;BME280;60755;51.374;10.662;2023-03-31T06:51:25;95735.94;;;9.42;100.00
72677;BME280;60755;51.374;10.662;2023-03-31T06:53:53;95735.41;;;9.40;100.00
72677;BME280;60755;51.374;10.662;2023-03-31T06:56:20;95731.75;;;9.31;100.00
72677;BME280;60755;51.374;10.662;2023-03-31T06:58:48;95728.59;;;9.39;100.00
72677;BME280;60755;51.374;10.662;2023-03-31T07:01:15;95720.72;;;9.34;100.00
72677;BME280;60755;51.374;10.662;2023-03-31T07:03:43;95717.03;;;9.56;100.00
72677;BME280;60755;51.374;10.662;2023-03-31T07:06:10;95704.47;;;9.37;100.00
72677;BME280;60755;51.374;10.662;2023-03-31T07:08:38;95712.00;;;9.74;100.00
72677;BME280;60755;51.374;10.662;2023-03-31T07:11:05;95710.94;;;9.75;100.00
72677;BME280;60755;51.374;10.662;2023-03-31T07:13:32;95706.56;;;9.56;100.00
72677;BME280;60755;51.374;10.662;2023-03-31T07:16:01;95712.81;;;9.60;100.00
72677;BME280;60755;51.374;10.662;2023-03-31T07:18:30;95700.72;;;9.69;100.00
72677;BME280;60755;51.374;10.662;2023-03-31T07:20:59;95690.19;;;9.84;100.00
72677;BME280;60755;51.374;10.662;2023-03-31T07:23:27;95682.75;;;10.12;99.67
72677;BME280;60755;51.374;10.662;2023-03-31T07:25:54;95695.31;;;10.20;98.93
72677;BME280;60755;51.374;10.662;2023-03-31T07:28:21;95700.38;;;10.60;97.62
72677;BME280;60755;51.374;10.662;2023-03-31T07:30:48;95693.91;;;10.82;95.33
72677;BME280;60755;51.374;10.662;2023-03-31T07:33:17;95693.56;;;10.93;92.96
72677;BME280;60755;51.374;10.662;2023-03-31T07:35:44;95699.16;;;10.82;93.40
72677;BME280;60755;51.374;10.662;2023-03-31T07:38:12;95698.69;;;10.35;95.64
72677;BME280;60755;51.374;10.662;2023-03-31T07:40:40;95695.34;;;10.09;95.34
72677;BME280;60755;51.374;10.662;2023-03-31T07:43:10;95685.63;;;10.10;97.80
72677;BME280;60755;51.374;10.662;2023-03-31T07:45:38;95676.56;;;9.87;98.58
72677;BME280;60755;51.374;10.662;2023-03-31T07:48:05;95676.25;;;9.94;98.80
72677;BME280;60755;51.374;10.662;2023-03-31T07:50:34;95671.59;;;9.70;100.00
72677;BME280;60755;51.374;10.662;2023-03-31T07:53:04;95673.94;;;9.82;100.00
72677;BME280;60755;51.374;10.662;2023-03-31T07:55:32;95665.28;;;9.87;99.12
72677;BME280;60755;51.374;10.662;2023-03-31T07:57:59;95651.91;;;9.78;99.68
72677;BME280;60755;51.374;10.662;2023-03-31T08:00:27;95655.84;;;9.80;99.96
72677;BME280;60755;51.374;10.662;2023-03-31T08:02:54;95654.34;;;9.64;100.00
72677;BME280;60755;51.374;10.662;2023-03-31T08:05:21;95649.06;;;9.69;100.00
72677;BME280;60755;51.374;10.662;2023-03-31T08:07:50;95645.09;;;9.77;98.78
72677;BME280;60755;51.374;10.662;2023-03-31T08:10:19;95640.84;;;9.91;98.87
72677;BME280;60755;51.374;10.662;2023-03-31T08:12:47;95636.31;;;10.02;98.82
72677;BME280;60755;51.374;10.662;2023-03-31T08:15:15;95638.22;;;9.91;97.02
72677;BME280;60755;51.374;10.662;2023-03-31T08:17:43;95632.69;;;9.93;97.56
72677;BME280;60755;51.374;10.662;2023-03-31T08:20:10;95629.50;;;10.01;96.32
72677;BME280;60755;51.374;10.662;2023-03-31T08:22:38;95623.59;;;9.80;97.79
72677;BME280;60755;51.374;10.662;2023-03-31T08:25:08;95620.94;;;9.85;97.67
72677;BME280;60755;51.374;10.662;2023-03-31T08:27:37;95613.06;;;9.85;97.41
72677;BME280;60755;51.374;10.662;2023-03-31T08:30:07;95622.03;;;9.79;98.11
72677;BME280;60755;51.374;10.662;2023-03-31T08:32:35;95628.34;;;9.68;97.21
72677;BME280;60755;51.374;10.662;2023-03-31T08:35:03;95619.47;;;9.53;100.00
72677;BME280;60755;51.374;10.662;2023-03-31T08:37:31;95618.19;;;9.46;100.00
72677;BME280;60755;51.374;10.662;2023-03-31T08:39:58;95607.97;;;9.49;100.00
72677;BME280;60755;51.374;10.662;2023-03-31T08:42:34;95609.81;;;9.49;100.00
72677;BME280;60755;51.374;10.662;2023-03-31T08:45:05;95599.53;;;9.58;100.00
72677;BME280;60755;51.374;10.662;2023-03-31T08:47:36;95601.41;;;9.52;100.00
72677;BME280;60755;51.374;10.662;2023-03-31T08:50:06;95596.94;;;9.52;100.00
72677;BME280;60755;51.374;10.662;2023-03-31T08:52:39;95602.72;;;9.49;100.00
72677;BME280;60755;51.374;10.662;2023-03-31T08:55:11;95593.75;;;9.61;100.00
72677;BME280;60755;51.374;10.662;2023-03-31T08:57:49;95587.75;;;9.55;100.00
72677;BME280;60755;51.374;10.662;2023-03-31T09:00:19;95580.88;;;9.69;100.00
72677;BME280;60755;51.374;10.662;2023-03-31T09:02:50;95584.38;;;9.49;100.00
72677;BME280;60755;51.374;10.662;2023-03-31T09:05:32;95578.34;;;9.44;100.00
72677;BME280;60755;51.374;10.662;2023-03-31T09:08:06;95573.47;;;9.12;100.00
72677;BME280;60755;51.374;10.662;2023-03-31T09:10:41;95576.13;;;9.07;100.00
72677;BME280;60755;51.374;10.662;2023-03-31T09:13:26;95572.44;;;9.03;100.00
72677;BME280;60755;51.374;10.662;2023-03-31T09:15:58;95560.16;;;8.93;100.00
72677;BME280;60755;51.374;10.662;2023-03-31T09:18:30;95571.66;;;9.02;100.00
72677;BME280;60755;51.374;10.662;2023-03-31T09:21:05;95554.13;;;8.87;100.00
72677;BME280;60755;51.374;10.662;2023-03-31T09:23:37;95562.78;;;8.93;100.00
72677;BME280;60755;51.374;10.662;2023-03-31T09:26:11;95551.56;;;8.82;100.00
72677;BME280;60755;51.374;10.662;2023-03-31T09:28:45;95551.56;;;8.82;100.00
72677;BME280;60755;51.374;10.662;2023-03-31T09:31:15;95547.59;;;8.80;100.00
72677;BME280;60755;51.374;10.662;2023-03-31T09:33:45;95548.63;;;8.89;100.00
72677;BME280;60755;51.374;10.662;2023-03-31T09:36:15;95537.41;;;8.83;100.00
72677;BME280;60755;51.374;10.662;2023-03-31T09:38:44;95540.53;;;8.80;100.00
72677;BME280;60755;51.374;10.662;2023-03-31T09:41:13;95535.53;;;8.89;100.00
72677;BME280;60755;51.374;10.662;2023-03-31T09:43:42;95533.72;;;8.84;100.00
72677;BME280;60755;51.374;10.662;2023-03-31T09:46:16;95536.84;;;8.86;100.00
72677;BME280;60755;51.374;10.662;2023-03-31T09:48:51;95533.69;;;8.89;100.00
72677;BME280;60755;51.374;10.662;2023-03-31T09:51:23;95532.59;;;9.11;100.00
72677;BME280;60755;51.374;10.662;2023-03-31T09:53:54;95527.34;;;9.16;100.00
72677;BME280;60755;51.374;10.662;2023-03-31T09:56:34;95529.94;;;9.21;100.00
72677;BME280;60755;51.374;10.662;2023-03-31T09:59:13;95517.84;;;9.30;100.00
72677;BME280;60755;51.374;10.662;2023-03-31T10:01:43;95520.28;;;9.16;100.00
72677;BME280;60755;51.374;10.662;2023-03-31T10:04:18;95509.25;;;9.19;100.00
72677;BME280;60755;51.374;10.662;2023-03-31T10:06:47;95505.84;;;9.14;100.00
72677;BME280;60755;51.374;10.662;2023-03-31T10:09:15;95495.78;;;9.41;100.00
72677;BME280;60755;51.374;10.662;2023-03-31T10:11:54;95493.94;;;9.47;100.00
72677;BME280;60755;51.374;10.662;2023-03-31T10:14:31;95491.03;;;9.48;100.00
72677;BME280;60755;51.374;10.662;2023-03-31T10:17:03;95486.38;;;9.35;100.00
72677;BME280;60755;51.374;10.662;2023-03-31T10:19:34;95487.44;;;9.34;100.00
72677;BME280;60755;51.374;10.662;2023-03-31T10:22:04;95477.44;;;9.36;100.00
72677;BME280;60755;51.374;10.662;2023-03-31T10:24:37;95481.06;;;9.45;100.00
72677;BME280;60755;51.374;10.662;2023-03-31T10:27:06;95483.16;;;9.48;100.00
72677;BME280;60755;51.374;10.662;2023-03-31T10:29:37;95478.41;;;9.56;100.00
72677;BME280;60755;51.374;10.662;2023-03-31T10:32:14;95480.69;;;9.67;99.57
72677;BME280;60755;51.374;10.662;2023-03-31T10:34:44;95471.13;;;9.87;97.96
72677;BME280;60755;51.374;10.662;2023-03-31T10:37:15;95465.56;;;9.93;98.16
72677;BME280;60755;51.374;10.662;2023-03-31T10:39:43;95459.69;;;10.06;99.50
72677;BME280;60755;51.374;10.662;2023-03-31T10:42:19;95473.00;;;10.15;98.77
72677;BME280;60755;51.374;10.662;2023-03-31T10:44:46;95456.94;;;10.27;97.85
72677;BME280;60755;51.374;10.662;2023-03-31T10:47:19;95459.28;;;10.28;96.51
72677;BME280;60755;51.374;10.662;2023-03-31T10:49:49;95451.00;;;10.40;97.14
72677;BME280;60755;51.374;10.662;2023-03-31T10:52:20;95455.00;;;10.61;95.28
72677;BME280;60755;51.374;10.662;2023-03-31T10:54:49;95449.63;;;10.48;95.75
72677;BME280;60755;51.374;10.662;2023-03-31T10:57:18;95439.38;;;10.51;95.75
72677;BME280;60755;51.374;10.662;2023-03-31T10:59:59;95435.50;;;10.44;95.96
72677;BME280;60755;51.374;10.662;2023-03-31T11:02:48;95434.75;;;10.38;96.78
72677;BME280;60755;51.374;10.662;2023-03-31T11:05:20;95437.09;;;10.69;95.10
72677;BME280;60755;51.374;10.662;2023-03-31T11:08:00;95435.41;;;10.78;93.93
72677;BME280;60755;51.374;10.662;2023-03-31T11:10:39;95429.09;;;10.98;97.04
72677;BME280;60755;51.374;10.662;2023-03-31T11:13:15;95424.88;;;11.20;93.10
72677;BME280;60755;51.374;10.662;2023-03-31T11:15:50;95433.09;;;11.57;92.47
72677;BME280;60755;51.374;10.662;2023-03-31T11:18:34;95418.91;;;11.90;90.13
72677;BME280;60755;51.374;10.662;2023-03-31T11:21:09;95428.53;;;11.81;91.68
72677;BME280;60755;51.374;10.662;2023-03-31T11:23:41;95425.75;;;11.91;90.92
72677;BME280;60755;51.374;10.662;2023-03-31T11:26:11;95424.59;;;11.97;90.74
72677;BME280;60755;51.374;10.662;2023-03-31T11:28:50;95421.25;;;11.92;87.46
72677;BME280;60755;51.374;10.662;2023-03-31T11:31:29;95423.31;;;12.27;89.04
72677;BME280;60755;51.374;10.662;2023-03-31T11:34:09;95410.16;;;12.55;89.11
72677;BME280;60755;51.374;10.662;2023-03-31T11:37:00;95413.16;;;12.35;86.43
72677;BME280;60755;51.374;10.662;2023-03-31T11:39:43;95401.09;;;12.47;85.88
72677;BME280;60755;51.374;10.662;2023-03-31T11:42:19;95405.56;;;12.74;86.58
72677;BME280;60755;51.374;10.662;2023-03-31T11:44:50;95403.19;;;13.41;83.55
72677;BME280;60755;51.374;10.662;2023-03-31T11:47:21;95392.06;;;13.89;82.36
72677;BME280;60755;51.374;10.662;2023-03-31T11:49:54;95393.22;;;14.28;76.85
72677;BME280;60755;51.374;10.662;2023-03-31T11:52:27;95387.84;;;14.19;78.10
72677;BME280;60755;51.374;10.662;2023-03-31T11:54:58;95384.44;;;13.65;80.12
72677;BME280;60755;51.374;10.662;2023-03-31T11:57:29;95386.13;;;12.98;82.35
72677;BME280;60755;51.374;10.662;2023-03-31T12:00:02;95378.59;;;13.19;81.89
72677;BME280;60755;51.374;10.662;2023-03-31T12:02:42;95381.84;;;13.52;79.02
72677;BME280;60755;51.374;10.662;2023-03-31T12:05:14;95383.69;;;13.51;80.99
72677;BME280;60755;51.374;10.662;2023-03-31T12:07:47;95375.03;;;12.73;83.83
72677;BME280;60755;51.374;10.662;2023-03-31T12:10:18;95378.72;;;13.00;83.52
72677;BME280;60755;51.374;10.662;2023-03-31T12:12:50;95373.16;;;13.01;83.96
72677;BME280;60755;51.374;10.662;2023-03-31T12:15:21;95373.78;;;13.34;81.59
72677;BME280;60755;51.374;10.662;2023-03-31T12:17:55;95371.72;;;12.68;82.18
72677;BME280;60755;51.374;10.662;2023-03-31T12:20:31;95370.66;;;13.19;81.22
72677;BME280;60755;51.374;10.662;2023-03-31T12:23:01;95365.84;;;12.84;82.58
72677;BME280;60755;51.374;10.662;2023-03-31T12:25:44;95358.75;;;13.57;81.06
72677;BME280;60755;51.374;10.662;2023-03-31T12:28:14;95349.44;;;13.37;81.31
72677;BME280;60755;51.374;10.662;2023-03-31T12:30:44;95351.72;;;13.16;81.72
72677;BME280;60755;51.374;10.662;2023-03-31T12:33:16;95344.28;;;13.32;80.24
72677;BME280;60755;51.374;10.662;2023-03-31T12:35:55;95338.66;;;13.48;81.53
72677;BME280;60755;51.374;10.662;2023-03-31T12:38:32;95330.00;;;13.78;76.66
72677;BME280;60755;51.374;10.662;2023-03-31T12:41:08;95332.94;;;13.77;80.76
72677;BME280;60755;51.374;10.662;2023-03-31T12:44:00;95324.88;;;14.04;78.61
72677;BME280;60755;51.374;10.662;2023-03-31T12:46:43;95317.38;;;13.97;77.60
72677;BME280;60755;51.374;10.662;2023-03-31T12:52:14;95311.03;;;14.07;78.09
72677;BME280;60755;51.374;10.662;2023-03-31T12:55:07;95310.94;;;14.12;79.34
72677;BME280;60755;51.374;10.662;2023-03-31T12:57:43;95317.50;;;13.92;77.33
72677;BME280;60755;51.374;10.662;2023-03-31T13:00:21;95303.34;;;13.88;79.22
72677;BME280;60755;51.374;10.662;2023-03-31T13:02:49;95300.09;;;14.31;76.01
72677;BME280;60755;51.374;10.662;2023-03-31T13:05:48;95299.34;;;14.96;73.10
72677;BME280;60755;51.374;10.662;2023-03-31T13:08:57;95292.81;;;15.02;75.29
72677;BME280;60755;51.374;10.662;2023-03-31T13:11:39;95297.88;;;14.55;74.26
72677;BME280;60755;51.374;10.662;2023-03-31T13:14:14;95299.88;;;14.50;74.61
72677;BME280;60755;51.374;10.662;2023-03-31T13:16:43;95297.63;;;13.95;73.69
72677;BME280;60755;51.374;10.662;2023-03-31T13:19:26;95291.03;;;13.53;75.95
72677;BME280;60755;51.374;10.662;2023-03-31T13:21:54;95315.22;;;12.05;80.80
72677;BME280;60755;51.374;10.662;2023-03-31T13:24:24;95326.69;;;11.63;85.51
72677;BME280;60755;51.374;10.662;2023-03-31T13:26:54;95318.66;;;11.40;89.11
72677;BME280;60755;51.374;10.662;2023-03-31T13:29:24;95324.41;;;10.86;92.42